Bookmark and Share
Track history (hours):
 

K&a Sp

Last reported at 2014-Feb-02 16:32 UTC. Time now 2014-Apr-23 12:44 UTC.
Position N 37°20' W 029°09'.
Warning: this ship's position is months out of date.

Length 177 m; draft 8.4 m.

Type: Cargo ship. MMSI: 354085000.

NotesDate/timePositionNaut miles runAvg speedWind from/ knotsBaromVisibWave heightAir tempDewpointWater temp
2014-Feb-02 16:32N 37°20' W 029°09'1212.7
2014-Feb-02 15:34N 37°27' W 028°56'1312.8
2014-Feb-02 14:33N 37°35' W 028°43'1312.5
2014-Feb-02 13:33N 37°42' W 028°30'1212.0
2014-Feb-02 12:34N 37°49' W 028°17'1211.9
2014-Feb-02 11:33N 37°56' W 028°05'1212.2
2014-Feb-02 10:33N 38°03' W 027°53'1212.1
2014-Feb-02 09:33N 38°10' W 027°40'1212.5
2014-Feb-02 08:34N 38°17' W 027°27'1212.2
2014-Feb-02 07:33N 38°24' W 027°15'1212.3
2014-Feb-02 06:33N 38°32' W 027°02'1212.0
2014-Feb-02 05:34N 38°38' W 026°49'1212.1
2014-Feb-02 04:33N 38°46' W 026°37'1211.9
2014-Feb-02 03:31N 38°53' W 026°24'  
2014-Jan-26 11:11N 50°18' W 001°18'912.9
2014-Jan-26 10:31N 50°20' W 001°05'5413.1
2014-Jan-26 06:25N 50°33' E 000°17'1112.3
2014-Jan-26 05:33N 50°36' E 000°33'1211.9
2014-Jan-26 04:33N 50°43' E 000°48'1212.1
2014-Jan-26 03:33N 50°51' E 001°03'1413.1
2014-Jan-26 02:31N 50°60' E 001°19'1414.2
2014-Jan-26 01:33N 51°08' E 001°36'1413.6
2014-Jan-26 00:34N 51°19' E 001°49'1212.1
2014-Jan-25 23:33N 51°30' E 001°59'1111.1
2014-Jan-25 22:33N 51°39' E 002°10'6610.5
2014-Jan-25 16:18N 52°37' E 002°60'912.0
2014-Jan-25 15:33N 52°45' E 003°06'1212.0
2014-Jan-25 14:33N 52°55' E 003°15'5910.8
2014-Jan-25 09:08N 53°49' E 003°54'  

Dump ship's entire track history

sailing weather and tide predictions

K&a Sp — 3FVZ3 — position and weather